Aiguafreda





Hora UTC 20:20
Temperatura 5.1 ºC
Sòl 15 cm 3.8 ºC
Humitat 82.4 %
Pressió 1001.5 hPa
Pluja 0.0 mm
Velocitat vent 0.0 km/h
Direcció vent NNE
Radiació solar 0.1 W/m²

Dades diàries 2019-11-15



Hora UTC (hivern +1h; estiu +2h)
Temperatura (ºC) Humitat (%) Pressió (hPa) Velocitat vent (km/h) Precipitació (mm) Radiació solar (W/m²)
Hora UTC Aire Sòl 15 cm Humitat Pressió Vel. Dir. Vel. Max Dir. Intent. màx 5 min. Rad. Sol.
00:05 1.0 -0.3 97.1 998.2 0.0 NNE 0.0 N 0.0 0.0
00:10 0.9 -0.3 97.1 998.3 0.0 NNE 0.0 N 0.0 0.0
00:15 0.8 -0.4 97.1 998.4 0.0 NNE 0.0 N 0.0 0.0
00:20 0.8 -0.4 97.2 998.3 0.0 NNE 0.0 N 0.0 0.0
00:25 0.8 -0.4 97.2 998.4 0.0 NNE 0.0 N 0.0 0.0
00:30 0.7 -0.5 97.1 998.4 0.0 NNE 0.0 N 0.0 0.0
00:35 0.7 -0.5 97.1 998.4 0.0 NNE 0.0 ENE 0.0 0.0
00:40 0.7 -0.5 97.3 998.4 0.0 NNE 0.0 N 0.0 0.0
00:45 0.7 -0.5 97.3 998.2 0.0 NNE 0.0 NW 0.0 0.0
00:50 0.6 -0.6 97.2 998.3 0.0 NNE 0.0 NW 0.0 0.0
00:55 0.6 -0.6 97.3 998.2 0.0 NNE 0.0 N 0.0 0.0
01:00 0.6 -0.5 97.4 998.2 0.0 NNE 0.0 N 0.0 0.0
01:05 0.6 -0.4 97.3 998.3 0.0 NNE 0.0 N 0.0 0.0
01:10 0.6 -0.5 97.3 998.3 0.0 NNE 0.0 W 0.0 0.0
01:15 0.6 -0.5 97.4 998.2 0.0 NNE 0.0 NW 0.0 0.0
01:20 0.6 -0.4 97.4 998.3 0.0 NNE 0.0 NE 0.0 0.0
01:25 0.6 -0.5 97.4 998.4 0.0 NNE 0.0 S 0.0 0.0
01:30 0.5 -0.5 97.4 998.4 0.0 NNE 0.0 S 0.0 0.0
01:35 0.6 -0.4 97.4 998.5 0.0 NNE 0.0 NW 0.0 0.0
01:40 0.6 -0.4 97.4 998.6 0.8 SE 6.1 SSE 0.0 0.0
01:45 0.6 -0.3 97.4 998.5 0.0 NNE 0.0 NNW 0.0 0.0
01:50 0.6 -0.2 97.4 998.4 0.7 WNW 6.1 W 0.0 0.0
01:55 0.6 -0.3 97.3 998.4 0.0 NE 3.4 ENE 0.0 0.0
02:00 0.5 -0.3 97.4 998.4 0.0 NNE 0.0 E 0.0 0.0
02:05 0.5 -0.4 97.3 998.4 0.0 NNE 0.0 S 0.0 0.0
02:10 0.5 -0.4 97.4 998.4 0.8 NE 6.1 ENE 0.0 0.0
02:15 0.6 -0.3 97.5 998.3 0.4 NE 6.1 NNE 0.0 0.0
02:20 0.6 -0.3 97.5 998.3 0.2 SW 3.4 WSW 0.0 0.0
02:25 0.6 -0.3 97.4 998.3 0.3 S 6.1 S 0.0 0.0
02:30 0.7 -0.2 97.5 998.3 1.1 SSE 6.1 SSE 0.0 0.0
02:35 0.7 -0.3 97.5 998.4 0.0 NNE 0.0 SE 0.0 0.0
02:40 0.7 -0.3 97.4 998.4 0.0 WSW 3.4 WSW 0.0 0.0
02:45 0.7 -0.2 97.4 998.5 0.0 NNE 0.0 SW 0.0 0.0
02:50 0.7 -0.2 97.4 998.5 0.0 NNE 0.0 SSE 0.0 0.0
02:55 0.7 -0.2 97.4 998.5 1.1 SE 6.1 SE 0.0 0.0
03:00 0.8 -0.1 97.5 998.4 0.0 NNE 0.0 E 0.0 0.0
03:05 0.8 -0.1 97.5 998.4 0.0 NNE 0.0 NNE 0.0 0.0
03:10 0.9 0.0 97.5 998.4 0.3 WNW 6.1 WNW 0.0 0.0
03:15 0.9 0.1 97.6 998.4 0.0 NNE 0.0 W 0.0 0.0
03:20 1.0 0.1 97.6 998.5 0.0 NNE 0.0 NNW 0.0 0.0
03:25 1.1 0.2 97.6 998.5 0.0 NNE 0.0 SE 0.0 0.0
03:30 1.0 0.2 97.4 998.5 0.0 NNE 0.0 SE 0.0 0.0
03:35 1.0 0.2 97.4 998.5 0.0 NNE 0.0 S 0.0 0.0
03:40 1.1 0.2 97.5 998.6 0.0 NNE 0.0 SSW 0.0 0.0
03:45 1.1 0.3 97.5 998.5 0.0 NNE 3.4 NNE 0.0 0.0
03:50 1.2 0.4 97.5 998.6 0.0 NNE 0.0 SE 0.0 0.0
03:55 1.3 0.5 97.5 998.6 0.0 NNE 0.0 WNW 0.0 0.0
04:00 1.3 0.5 97.5 998.5 0.0 NNE 0.0 WNW 0.0 0.0
04:05 1.4 0.6 97.5 998.5 0.1 ENE 3.4 ENE 0.0 0.0
04:10 1.5 0.7 97.7 998.4 1.0 NNE 6.1 NE 0.0 0.0
04:15 1.7 0.8 97.7 998.4 1.4 NE 8.8 NE 0.0 0.0
04:20 1.7 0.8 97.5 998.5 0.1 NE 3.4 NE 0.0 0.0
04:25 1.6 0.7 97.4 998.4 0.0 NNE 0.0 NE 0.0 0.0
04:30 1.6 0.6 97.3 998.5 0.0 NNE 0.0 SSE 0.0 0.0
04:35 1.5 0.5 97.3 998.5 0.0 NNE 0.0 SSE 0.0 0.0
04:40 1.5 0.3 97.2 998.4 0.0 NNE 0.0 SSE 0.0 0.0
04:45 1.4 0.2 97.2 998.5 0.0 NNE 0.0 WSW 0.0 0.0
04:50 1.3 0.1 97.3 998.6 0.0 NNE 0.0 WSW 0.0 0.0
04:55 1.3 0.0 97.2 998.5 0.0 NNE 0.0 W 0.0 0.0
05:00 1.2 0.0 97.3 998.4 0.1 NE 3.4 N 0.0 0.0
05:05 1.2 0.0 97.4 998.5 0.0 NNE 0.0 ENE 0.0 0.0
05:10 1.2 0.1 97.4 998.4 0.0 NNE 0.0 SSE 0.0 0.0
05:15 1.2 -0.1 97.3 998.4 0.0 NNE 0.0 ESE 0.0 0.0
05:20 1.2 -0.1 97.4 998.5 0.0 NNE 0.0 NNW 0.0 0.0
05:25 1.2 0.1 97.4 998.5 0.0 NNE 0.0 WNW 0.0 0.0
05:30 1.2 0.0 97.2 998.6 0.0 NNE 0.0 SSW 0.0 0.0
05:35 1.1 -0.1 97.2 998.6 0.0 NNE 0.0 WSW 0.0 0.0
05:40 1.0 -0.3 97.1 998.6 0.0 NNE 0.0 WSW 0.0 0.0
05:45 0.9 -0.4 97.1 998.7 0.0 NNE 0.0 SSW 0.0 0.0
05:50 0.8 -0.5 97.1 998.7 0.0 NNE 0.0 SSE 0.0 0.0
05:55 0.8 -0.5 97.2 998.7 0.0 NNE 0.0 SSE 0.0 0.0
06:00 0.7 -0.6 97.2 998.8 0.0 NNE 0.0 SSE 0.0 0.0
06:05 0.7 -0.6 97.3 998.7 0.0 NNE 0.0 SSE 0.0 0.0
06:10 0.7 -0.5 97.4 999.0 0.0 NNE 0.0 SSE 0.0 0.0
06:15 0.7 -0.5 97.3 999.1 0.3 SSE 3.4 SSE 0.0 0.0
06:20 0.6 -0.5 97.3 999.0 0.0 NNE 0.0 SE 0.0 0.0
06:25 0.6 -0.5 97.3 999.0 0.0 NNE 0.0 SSE 0.0 0.0
06:30 0.6 -0.5 97.3 999.2 0.0 NNE 0.0 SSE 0.0 0.0
06:35 0.6 -0.6 97.3 999.1 0.0 NNE 0.0 ESE 0.0 0.0
06:40 0.6 -0.6 97.4 999.1 0.0 NNE 0.0 ESE 0.0 0.0
06:45 0.7 -0.6 97.5 999.1 0.0 NNE 0.0 ESE 0.0 0.0
06:50 0.7 -0.5 97.5 999.2 0.0 NNE 0.0 ESE 0.0 0.0
06:55 0.8 -0.3 97.6 999.2 0.0 NNE 0.0 ESE 0.0 0.0
07:00 0.9 -0.1 97.7 999.2 0.0 NNE 0.0 NE 0.0 0.0
07:05 1.0 0.1 97.8 999.2 0.0 NNE 0.0 ENE 0.0 0.0
07:10 1.1 0.2 97.7 999.4 0.0 NNE 0.0 ESE 0.0 0.0
07:15 1.3 0.3 97.8 999.4 0.0 NNE 0.0 ESE 0.0 0.0
07:20 1.3 0.5 97.7 999.6 0.0 NNE 0.0 ESE 0.0 0.0
07:25 1.4 0.6 97.6 999.7 0.0 NNE 0.0 SW 0.0 0.0
07:30 1.6 0.9 97.7 999.7 0.0 NNE 0.0 N 0.0 0.0
07:35 1.7 1.1 97.7 999.7 0.2 NNE 3.4 NNE 0.0 0.0
07:40 1.8 1.3 97.7 999.9 1.7 NNE 11.5 N 0.0 0.0
07:45 1.9 1.4 97.5 999.9 1.5 NE 8.8 ENE 0.0 0.0
07:50 2.0 1.4 97.4 999.9 3.1 NE 8.8 NE 0.0 0.0
07:55 2.0 1.5 97.3 999.9 0.5 NE 6.1 E 0.0 0.1
08:00 2.0 1.6 97.2 999.9 3.6 NE 11.5 NE 0.0 1.7
08:05 2.0 1.5 97.1 999.9 3.6 ENE 11.5 NNE 0.0 2.8
08:10 2.0 1.5 96.9 999.9 4.2 NE 8.8 NNE 0.0 0.1
08:15 1.9 1.4 96.8 999.9 4.1 NE 14.2 N 0.0 0.2
08:20 1.9 1.4 96.7 999.9 5.4 NE 11.5 NE 0.0 0.2
08:25 1.9 1.4 96.6 999.8 6.1 NE 16.9 NE 0.0 0.2
08:30 1.9 1.5 96.7 1000.0 3.7 NE 11.5 N 0.0 1.3
08:35 2.0 1.6 96.7 1000.0 4.4 NE 14.2 ENE 0.0 2.6
08:40 2.0 1.6 96.5 1000.0 3.7 NNE 11.5 NE 0.0 0.6
08:45 2.0 1.8 96.5 1000.0 2.6 NE 11.5 NNE 0.0 3.1
08:50 2.1 2.0 96.5 1000.1 2.3 ENE 11.5 N 0.0 8.6
08:55 2.2 2.1 96.3 1000.0 4.1 NE 14.2 NE 0.0 10.4
09:00 2.3 2.2 96.1 1000.1 2.5 NE 11.5 ENE 0.0 32.8
09:05 2.5 2.4 95.8 1000.0 4.0 NE 11.5 NE 0.0 46.6
09:10 2.6 2.5 95.3 1000.0 4.5 NE 11.5 NW 0.0 39.1
09:15 2.7 2.7 95.2 1000.0 3.8 NE 16.9 ENE 0.0 83.7
09:20 3.0 3.1 95.0 1000.0 2.3 NE 8.8 NNE 0.0 116.3
09:25 3.3 3.6 94.3 999.9 3.6 NE 11.5 NE 0.0 207.6
09:30 3.6 3.9 93.6 999.9 3.4 NE 11.5 NE 0.0 301.7
09:35 4.0 4.4 92.5 999.9 4.3 NE 8.8 NNE 0.0 301.4
09:40 4.4 4.6 91.3 999.9 3.7 NE 11.5 ENE 0.0 293.0
09:45 4.8 5.4 89.9 999.9 2.9 NE 14.2 N 0.0 52.9
09:50 5.1 6.0 87.6 999.9 4.4 NE 11.5 NE 0.0 81.5
09:55 5.4 6.5 86.2 999.8 5.3 NE 14.2 NE 0.0 156.5
10:00 5.7 7.2 85.6 999.8 3.9 ENE 11.5 NE 0.0 302.9
10:05 6.1 7.4 82.6 999.9 3.2 NE 11.5 NE 0.0 107.2
10:10 6.5 7.5 80.2 999.8 6.7 NE 14.2 NNE 0.0 355.5
10:15 6.4 7.4 79.0 999.8 6.0 NNE 11.5 NNE 0.0 383.6
10:20 6.5 7.8 79.0 999.7 5.8 NNE 14.2 N 0.0 410.4
10:25 6.7 8.1 78.2 999.6 5.0 NNE 14.2 N 0.0 424.0
10:30 6.9 8.5 77.9 999.5 4.9 NNE 14.2 NNE 0.0 449.8
10:35 7.4 9.1 75.7 999.5 4.8 NNE 14.2 NNE 0.0 469.4
10:40 7.6 9.1 74.4 999.4 5.6 N 14.2 NNE 0.0 426.7
10:45 7.7 8.7 73.3 999.4 6.5 NNE 14.2 NNE 0.0 402.4
10:50 7.8 8.8 73.3 999.3 5.2 NNE 11.5 N 0.0 397.3
10:55 7.9 8.9 73.4 999.3 4.7 NNE 11.5 NE 0.0 424.3
11:00 8.2 9.5 72.3 999.3 6.4 NNE 11.5 NNW 0.0 416.5
11:05 8.3 9.9 72.1 999.2 5.3 NNE 14.2 N 0.0 442.7
11:10 8.5 10.1 72.2 999.1 4.8 N 11.5 N 0.0 410.3
11:15 8.6 10.3 72.1 999.1 3.2 NNE 11.5 N 0.0 393.7
11:20 9.0 10.6 70.7 999.1 2.3 NNE 8.8 N 0.0 407.1
11:25 9.3 10.9 68.2 999.0 1.7 NNW 6.1 NNE 0.0 420.6
11:30 9.6 11.6 67.1 998.9 1.4 NE 6.1 NE 0.0 442.9
11:35 9.9 11.9 64.0 998.9 1.9 NNE 11.5 NNE 0.0 420.1
11:40 10.0 11.4 61.4 998.8 4.0 NNE 8.8 NNW 0.0 510.1
11:45 10.0 11.4 61.8 998.7 5.2 WSW 14.2 SW 0.0 423.8
11:50 10.2 12.4 62.7 998.6 4.6 SW 11.5 WNW 0.0 494.4
11:55 10.3 12.8 61.1 998.7 6.7 WSW 14.2 SW 0.0 562.5
12:00 10.5 13.3 59.4 998.6 5.2 N 16.9 WNW 0.0 586.9
12:05 10.2 13.1 57.9 998.5 2.6 E 11.5 N 0.0 471.5
12:10 10.3 12.8 57.6 998.6 2.9 ESE 8.8 NNW 0.0 471.7
12:15 10.5 13.0 57.1 998.6 2.0 E 8.8 NNE 0.0 533.4
12:20 10.4 12.1 55.8 998.7 6.1 NNE 19.6 NNE 0.0 440.1
12:25 10.0 11.4 56.8 998.7 5.9 N 16.9 N 0.0 476.4
12:30 9.5 10.6 59.1 998.6 7.7 WSW 16.9 W 0.0 429.7
12:35 9.0 9.9 62.3 998.8 9.1 WSW 19.6 W 0.0 320.4
12:40 8.7 9.6 63.9 998.7 10.2 WSW 16.9 W 0.0 490.6
12:45 8.9 10.0 63.8 998.6 8.9 WSW 16.9 WSW 0.0 538.7
12:50 8.9 10.2 62.6 998.6 10.9 WSW 16.9 WSW 0.0 538.4
12:55 9.2 11.1 64.0 998.6 6.7 WSW 14.2 SW 0.0 519.4
13:00 9.7 11.7 61.2 998.7 2.4 WSW 11.5 WSW 0.0 522.1
13:05 9.8 11.7 59.6 998.6 5.8 NE 19.6 NNW 0.0 503.7
13:10 9.8 10.9 60.3 998.4 3.0 E 8.8 NNE 0.0 493.9
13:15 10.2 10.5 57.4 998.5 2.4 W 8.8 SSW 0.0 484.8
13:20 9.9 11.2 58.0 998.4 3.9 ENE 14.2 NE 0.0 478.6
13:25 9.7 11.7 58.5 998.6 4.2 NE 14.2 NE 0.0 449.5
13:30 9.6 11.7 58.2 998.5 7.1 WSW 22.3 W 0.0 437.9
13:35 9.3 11.3 58.1 998.4 6.0 SW 19.6 WSW 0.0 426.8
13:40 9.2 11.4 58.8 998.6 5.5 N 16.9 NW 0.0 415.8
13:45 9.5 10.8 59.8 998.5 2.5 SW 8.8 W 0.0 429.7
13:50 9.7 11.2 57.6 998.5 4.2 NNW 11.5 N 0.0 422.4
13:55 9.5 10.9 58.5 998.5 2.6 SE 6.1 S 0.0 399.8
14:00 9.5 10.6 58.9 998.4 4.6 S 8.8 SE 0.0 381.3
14:05 9.6 11.7 58.8 998.3 5.2 SW 14.2 SW 0.0 364.9
14:10 9.4 12.3 59.4 998.3 3.7 ESE 11.5 SE 0.0 360.7
14:15 9.4 12.8 59.0 998.4 1.5 WNW 8.8 SW 0.0 360.7
14:20 9.4 12.5 59.3 998.4 2.8 SSW 8.8 SSW 0.0 282.7
14:25 9.2 11.7 60.0 998.4 6.3 W 16.9 NW 0.0 322.8
14:30 9.1 11.7 61.0 998.7 7.0 WSW 16.9 SW 0.0 362.6
14:35 9.0 11.5 59.6 998.6 6.5 WSW 16.9 WSW 0.0 290.4
14:40 8.5 10.2 61.3 998.7 6.5 N 14.2 ENE 0.0 111.2
14:45 8.1 9.4 63.4 998.5 3.4 N 11.5 NNE 0.0 121.8
14:50 8.0 8.9 65.0 998.7 4.6 NNE 11.5 NE 0.0 195.3
14:55 8.3 9.1 64.6 998.7 3.9 N 14.2 ENE 0.0 261.2
15:00 8.5 9.5 63.4 998.7 4.4 WNW 11.5 W 0.0 251.0
15:05 8.4 9.6 64.2 998.7 4.8 NE 14.2 NNE 0.0 125.4
15:10 8.3 9.4 66.1 998.7 3.4 NNE 8.8 NE 0.0 186.4
15:15 8.5 9.4 64.6 998.7 3.4 WSW 8.8 W 0.0 232.6
15:20 8.7 9.9 64.6 998.7 4.9 SE 11.5 SE 0.0 237.7
15:25 8.9 10.3 63.7 998.6 1.7 SSE 6.1 SSW 0.0 230.7
15:30 8.9 9.9 63.4 998.9 1.5 SSE 6.1 SSE 0.0 120.8
15:35 8.7 9.6 63.9 998.8 2.2 SE 8.8 SSE 0.0 91.7
15:40 8.4 9.0 66.3 998.8 0.9 NE 6.1 NE 0.0 70.8
15:45 8.1 8.3 66.4 999.0 5.2 NNW 16.9 W 0.0 46.4
15:50 7.7 7.6 67.3 999.0 4.8 NE 11.5 NNE 0.0 34.4
15:55 7.4 7.2 68.6 999.1 4.3 WNW 14.2 WSW 0.0 14.6
16:00 7.2 6.9 68.1 999.1 4.7 NNW 14.2 NW 0.0 0.0
16:05 7.1 6.6 69.0 999.2 3.3 NNE 8.8 ENE 0.0 2.7
16:10 7.0 6.4 71.3 999.0 2.3 NE 8.8 NE 0.0 5.8
16:15 6.8 6.1 72.3 999.2 1.6 NNE 6.1 NE 0.0 8.3
16:20 6.7 5.8 73.8 999.2 1.2 NE 8.8 NE 0.0 7.2
16:25 6.5 5.6 74.5 999.2 3.2 ENE 8.8 NE 0.0 1.1
16:30 6.3 5.3 76.5 999.2 4.1 E 8.8 E 0.0 0.3
16:35 6.1 5.1 77.1 999.3 2.4 E 8.8 E 0.0 0.2
16:40 6.1 5.0 77.2 999.4 2.0 NNE 14.2 NE 0.0 0.0
16:45 6.2 5.2 75.4 999.5 6.2 N 16.9 NNE 0.0 0.0
16:50 6.4 5.5 73.7 999.4 6.0 N 11.5 NW 0.0 0.0
16:55 6.4 5.4 74.8 999.6 2.8 ENE 6.1 NE 0.0 0.0
17:00 6.3 5.4 75.6 999.6 1.0 SSE 6.1 SE 0.0 0.0
17:05 6.3 5.3 76.3 999.7 0.0 NNE 0.0 W 0.0 0.0
17:10 6.1 5.2 77.8 999.7 1.6 ENE 8.8 ENE 0.0 0.1
17:15 6.0 5.2 77.7 999.8 0.9 NE 6.1 NE 0.0 0.0
17:20 6.1 5.3 77.3 999.9 3.0 NW 8.8 ENE 0.0 0.0
17:25 6.1 5.3 77.3 1000.0 0.5 N 6.1 NW 0.0 0.0
17:30 6.2 5.4 77.3 1000.1 1.4 N 6.1 NNE 0.0 0.0
17:35 6.1 5.3 77.6 1000.0 0.2 ENE 6.1 ENE 0.0 0.0
17:40 6.1 5.3 77.6 1000.2 2.4 NE 8.8 N 0.0 0.0
17:45 6.2 5.4 77.6 1000.1 0.0 NNE 0.0 WNW 0.0 0.0
17:50 6.2 5.3 77.7 1000.1 0.1 NE 3.4 NE 0.0 0.0
17:55 6.2 5.3 78.5 1000.2 2.3 ENE 11.5 E 0.0 0.0
18:00 6.2 5.4 78.0 1000.3 4.1 NE 8.8 NE 0.0 0.0
18:05 6.3 5.6 77.0 1000.2 4.8 NE 11.5 NE 0.0 0.0
18:10 6.5 5.7 76.0 1000.3 0.0 NNE 0.0 NNW 0.0 0.0
18:15 6.5 5.7 75.5 1000.4 2.0 NE 8.8 ENE 0.0 0.0
18:20 6.6 5.8 75.9 1000.5 1.5 E 8.8 ENE 0.0 0.0
18:25 6.6 5.9 75.6 1000.5 1.1 NE 8.8 E 0.0 0.1
18:30 6.6 5.9 74.7 1000.6 0.0 NNE 0.0 ESE 0.0 0.0
18:35 6.6 5.9 75.1 1000.6 0.0 NNE 0.0 SSW 0.0 0.0
18:40 6.6 5.8 76.6 1000.7 1.4 E 6.1 ESE 0.0 0.0
18:45 6.6 5.8 76.4 1000.8 3.0 NE 11.5 NNE 0.0 0.1
18:50 6.5 5.8 76.2 1000.8 3.0 N 11.5 NE 0.0 0.0
18:55 6.5 5.8 75.6 1000.9 0.2 ESE 3.4 SE 0.0 0.1
19:00 6.5 5.8 76.3 1000.9 2.4 E 8.8 ESE 0.0 0.0
19:05 6.5 5.8 76.5 1000.9 0.1 NE 6.1 NNE 0.0 0.1
19:10 6.5 5.8 76.1 1000.9 0.4 NNE 6.1 NE 0.0 0.0
19:15 6.5 5.9 76.1 1001.0 0.3 W 3.4 W 0.0 0.0
19:20 6.5 5.8 76.5 1000.9 2.5 NE 11.5 NE 0.0 0.0
19:25 6.5 5.8 76.7 1000.9 0.0 NNE 0.0 W 0.0 0.0
19:30 6.4 5.7 76.7 1001.0 1.8 NW 8.8 ENE 0.0 0.0
19:35 6.4 5.7 76.5 1001.1 0.9 NE 6.1 ENE 0.0 0.0
19:40 6.3 5.6 76.4 1001.1 3.5 NE 8.8 NNE 0.0 0.0
19:45 6.3 5.6 76.7 1001.2 1.7 NNE 6.1 NE 0.0 0.0
19:50 6.3 5.5 76.4 1001.2 1.6 NNE 6.1 NNE 0.0 0.0
19:55 6.2 5.4 76.7 1001.2 1.3 NE 6.1 NE 0.0 0.0
20:00 6.0 5.1 77.9 1001.4 0.9 ENE 6.1 ENE 0.0 0.0
20:05 5.9 4.8 78.8 1001.4 0.5 NNE 6.1 N 0.0 0.0
20:10 5.7 4.5 80.0 1001.4 0.0 NNE 0.0 ENE 0.0 0.0
20:15 5.5 4.2 81.1 1001.4 0.0 NNE 0.0 NW 0.0 0.0
20:20 5.1 3.8 82.4 1001.5 0.0 NNE 0.0 NNE 0.0 0.1
Màxima 10.7 13.3 97.8 1001.5 10.9 WSW 22.3 W 0.0 586.9
Mínima 0.5 -0.6 55.8 998.2
Total 0.0